createdAt,value
2018-01-27T00:00:33.737Z,25.94
2018-01-27T00:01:33.702Z,25.96
2018-01-27T00:02:33.681Z,25.97
2018-01-27T00:03:33.646Z,25.85
2018-01-27T00:04:33.796Z,25.88
2018-01-27T00:05:34.559Z,25.89
2018-01-27T00:06:33.577Z,25.85
2018-01-27T00:07:33.551Z,25.91
2018-01-27T00:08:33.569Z,25.86
2018-01-27T00:09:33.595Z,25.85
2018-01-27T00:10:33.477Z,25.78
2018-01-27T00:11:33.470Z,25.85
2018-01-27T00:12:33.434Z,25.88
2018-01-27T00:13:33.399Z,25.88
2018-01-27T00:14:33.365Z,25.88
2018-01-27T00:15:33.452Z,25.89
2018-01-27T00:16:33.313Z,25.84
2018-01-27T00:17:33.283Z,25.79
2018-01-27T00:18:33.268Z,25.82
2018-01-27T00:19:33.273Z,25.78
2018-01-27T00:20:33.314Z,25.76
2018-01-27T00:21:33.192Z,25.71
2018-01-27T00:22:33.225Z,25.63
2018-01-27T00:23:33.123Z,25.64
2018-01-27T00:24:33.141Z,25.67
2018-01-27T00:25:33.713Z,25.60
2018-01-27T00:26:33.115Z,25.52
2018-01-27T00:27:33.615Z,25.54
2018-01-27T00:28:33.063Z,25.49
2018-01-27T00:29:32.986Z,25.44
2018-01-27T00:30:33.002Z,25.47
2018-01-27T00:31:33.564Z,25.39
2018-01-27T00:32:32.936Z,25.34
2018-01-27T00:33:32.858Z,25.38
2018-01-27T00:34:32.865Z,25.26
2018-01-27T00:35:32.856Z,25.26
2018-01-27T00:36:32.984Z,25.32
2018-01-27T00:37:32.868Z,25.23
2018-01-27T00:38:32.760Z,25.19
2018-01-27T00:39:32.769Z,25.07
2018-01-27T00:40:32.679Z,25.07
2018-01-27T00:41:33.362Z,25.12
2018-01-27T00:42:33.185Z,25.08
2018-01-27T00:43:32.622Z,25.01
2018-01-27T00:44:32.619Z,24.97
2018-01-27T00:45:32.553Z,24.90
2018-01-27T00:46:33.244Z,24.89
2018-01-27T00:47:32.510Z,24.96
2018-01-27T00:48:32.460Z,24.94
2018-01-27T00:49:32.462Z,24.86
2018-01-27T00:50:32.414Z,24.78
2018-01-27T00:51:32.949Z,24.78
2018-01-27T00:52:32.988Z,24.75
2018-01-27T00:53:32.867Z,24.69
2018-01-27T00:54:32.324Z,24.66
2018-01-27T00:55:32.282Z,24.63
2018-01-27T00:56:32.849Z,24.58
2018-01-27T00:57:32.759Z,24.52
2018-01-27T00:58:32.305Z,24.49
2018-01-27T00:59:32.720Z,24.49
2018-01-27T01:00:32.172Z,24.52
2018-01-27T01:01:32.136Z,24.45
2018-01-27T01:02:32.114Z,24.42
2018-01-27T01:03:32.136Z,24.55
2018-01-27T01:04:32.145Z,24.45
2018-01-27T01:05:32.023Z,24.46
2018-01-27T01:06:32.463Z,24.49
2018-01-27T01:07:31.992Z,24.46
2018-01-27T01:08:31.937Z,24.39
2018-01-27T01:09:32.046Z,24.45
2018-01-27T01:10:31.893Z,24.40
2018-01-27T01:11:31.865Z,24.36
2018-01-27T01:12:32.363Z,24.30
2018-01-27T01:13:32.745Z,24.17
2018-01-27T01:14:31.887Z,24.19
2018-01-27T01:15:31.747Z,24.29
2018-01-27T01:16:31.738Z,24.30
2018-01-27T01:17:31.707Z,24.26
2018-01-27T01:18:31.685Z,24.21
2018-01-27T01:19:31.738Z,24.07
2018-01-27T01:20:31.625Z,24.15
2018-01-27T01:21:31.587Z,24.07
2018-01-27T01:22:31.776Z,24.04
2018-01-27T01:23:32.126Z,24.07
2018-01-27T01:24:31.837Z,23.99
2018-01-27T01:25:32.039Z,23.99
2018-01-27T01:26:31.481Z,24.02
2018-01-27T01:27:31.500Z,23.92
2018-01-27T01:28:31.413Z,23.92
2018-01-27T01:29:31.947Z,23.92
2018-01-27T01:30:32.412Z,23.84
2018-01-27T01:31:31.846Z,23.93
2018-01-27T01:32:31.971Z,23.85
2018-01-27T01:33:31.818Z,23.90
2018-01-27T01:34:31.251Z,23.85
2018-01-27T01:35:31.324Z,23.99
2018-01-27T01:36:31.787Z,23.92
2018-01-27T01:37:31.155Z,23.94
2018-01-27T01:38:31.138Z,23.90
2018-01-27T01:39:31.166Z,23.92
2018-01-27T01:40:31.150Z,23.82
2018-01-27T01:41:31.154Z,23.78
2018-01-27T01:42:31.031Z,23.87
2018-01-27T01:43:31.556Z,23.92
2018-01-27T01:44:31.565Z,23.87
2018-01-27T01:45:32.142Z,23.87
2018-01-27T01:46:31.297Z,23.96
2018-01-27T01:47:31.291Z,23.89
2018-01-27T01:48:31.523Z,23.92
2018-01-27T01:49:30.938Z,23.87
2018-01-27T01:50:30.853Z,23.90
2018-01-27T01:51:30.885Z,23.82
2018-01-27T01:52:31.164Z,23.94
2018-01-27T01:53:31.194Z,23.82
2018-01-27T01:54:31.004Z,23.78
2018-01-27T01:55:30.745Z,23.81
2018-01-27T01:56:30.750Z,23.72
2018-01-27T01:57:30.687Z,23.78
2018-01-27T01:58:30.644Z,23.72
2018-01-27T01:59:31.155Z,23.71
2018-01-27T02:00:31.094Z,23.78
2018-01-27T02:01:30.577Z,23.67
2018-01-27T02:02:30.569Z,23.71
2018-01-27T02:03:30.455Z,23.63
2018-01-27T02:04:30.636Z,23.63
2018-01-27T02:05:30.386Z,23.70
2018-01-27T02:06:30.934Z,23.59
2018-01-27T02:07:30.976Z,23.60
2018-01-27T02:08:30.311Z,23.55
2018-01-27T02:09:30.792Z,23.64
2018-01-27T02:10:31.248Z,23.67
2018-01-27T02:11:30.729Z,23.62
2018-01-27T02:12:30.239Z,23.56
2018-01-27T02:13:30.278Z,23.60
2018-01-27T02:14:30.688Z,23.57
2018-01-27T02:15:30.658Z,23.47
2018-01-27T02:16:30.092Z,23.67
2018-01-27T02:17:30.311Z,23.66
2018-01-27T02:18:30.163Z,23.59
2018-01-27T02:19:30.004Z,23.56
2018-01-27T02:20:30.510Z,23.60
2018-01-27T02:21:29.980Z,23.56
2018-01-27T02:22:30.450Z,23.53
2018-01-27T02:23:30.002Z,23.59
2018-01-27T02:24:30.392Z,23.59
2018-01-27T02:25:29.860Z,23.57
2018-01-27T02:26:31.017Z,23.63
2018-01-27T02:27:29.785Z,23.56
2018-01-27T02:28:29.915Z,23.60
2018-01-27T02:29:29.724Z,23.53
2018-01-27T02:30:30.264Z,23.52
2018-01-27T02:31:30.213Z,23.50
2018-01-27T02:32:30.171Z,23.50
2018-01-27T02:33:29.715Z,23.57
2018-01-27T02:34:29.638Z,23.57
2018-01-27T02:35:29.566Z,23.52
2018-01-27T02:36:29.527Z,23.62
2018-01-27T02:37:30.037Z,23.56
2018-01-27T02:38:30.014Z,23.50
2018-01-27T02:39:30.084Z,23.60
2018-01-27T02:40:29.959Z,23.53
2018-01-27T02:41:29.896Z,23.53
2018-01-27T02:42:29.407Z,23.53
2018-01-27T02:43:29.406Z,23.59
2018-01-27T02:44:29.406Z,23.52
2018-01-27T02:45:29.856Z,23.48
2018-01-27T02:46:29.269Z,23.62
2018-01-27T02:47:29.997Z,23.53
2018-01-27T02:48:29.241Z,23.53
2018-01-27T02:49:29.192Z,23.48
2018-01-27T02:50:29.252Z,23.62
2018-01-27T02:51:29.131Z,23.44
2018-01-27T02:52:29.097Z,23.55
2018-01-27T02:53:29.590Z,23.45
2018-01-27T02:54:29.061Z,23.56
2018-01-27T02:55:29.669Z,23.45
2018-01-27T02:56:29.508Z,23.57
2018-01-27T02:57:29.009Z,23.48
2018-01-27T02:58:28.939Z,23.47
2018-01-27T02:59:29.129Z,23.59
2018-01-27T03:00:29.563Z,23.44
2018-01-27T03:01:29.549Z,23.52
2018-01-27T03:02:29.550Z,23.44
2018-01-27T03:03:28.809Z,23.47
2018-01-27T03:04:28.811Z,23.45
2018-01-27T03:05:29.349Z,23.57
2018-01-27T03:06:29.352Z,23.55
2018-01-27T03:07:28.720Z,23.53
2018-01-27T03:08:28.761Z,23.40
2018-01-27T03:09:29.232Z,23.52
2018-01-27T03:10:28.702Z,23.57
2018-01-27T03:11:29.113Z,23.55
2018-01-27T03:12:29.082Z,23.56
2018-01-27T03:13:28.593Z,23.59
2018-01-27T03:14:28.507Z,23.48
2018-01-27T03:15:28.546Z,23.48
2018-01-27T03:16:28.573Z,23.41
2018-01-27T03:17:28.934Z,23.41
2018-01-27T03:18:28.382Z,23.34
2018-01-27T03:19:28.355Z,23.34
2018-01-27T03:20:28.852Z,23.28
2018-01-27T03:21:28.825Z,23.32
2018-01-27T03:22:29.183Z,23.34
2018-01-27T03:23:28.243Z,23.41
2018-01-27T03:24:28.745Z,23.28
2018-01-27T03:25:28.168Z,23.29
2018-01-27T03:26:28.380Z,23.32
2018-01-27T03:27:28.816Z,23.32
2018-01-27T03:28:28.666Z,23.24
2018-01-27T03:29:28.089Z,23.24
2018-01-27T03:30:28.119Z,23.19
2018-01-27T03:31:28.114Z,23.26
2018-01-27T03:32:28.083Z,23.18
2018-01-27T03:33:28.955Z,23.21
2018-01-27T03:34:27.941Z,23.19
2018-01-27T03:35:28.538Z,23.16
2018-01-27T03:36:28.427Z,23.12
2018-01-27T03:37:28.948Z,23.19
2018-01-27T03:38:27.815Z,23.14
2018-01-27T03:39:27.799Z,23.12
2018-01-27T03:40:27.818Z,23.09
2018-01-27T03:41:28.327Z,23.09
2018-01-27T03:42:28.024Z,23.15
2018-01-27T03:43:28.209Z,23.04
2018-01-27T03:44:27.661Z,23.04
2018-01-27T03:45:28.207Z,23.07
2018-01-27T03:46:27.663Z,23.01
2018-01-27T03:47:28.219Z,23.07
2018-01-27T03:48:27.620Z,23.04
2018-01-27T03:49:28.062Z,23.06
2018-01-27T03:50:27.563Z,23.04
2018-01-27T03:51:27.461Z,23.01
2018-01-27T03:52:28.140Z,22.92
2018-01-27T03:53:27.643Z,23.01
2018-01-27T03:54:27.453Z,22.85
2018-01-27T03:55:27.343Z,22.94
2018-01-27T03:56:27.342Z,22.97
2018-01-27T03:57:27.295Z,22.99
2018-01-27T03:58:27.392Z,23.03
2018-01-27T03:59:27.452Z,23.03
2018-01-27T04:00:27.216Z,22.94
2018-01-27T04:01:27.393Z,22.97
2018-01-27T04:02:27.687Z,22.97
2018-01-27T04:03:27.285Z,22.97
2018-01-27T04:04:27.117Z,22.97
2018-01-27T04:05:27.266Z,23.04
2018-01-27T04:06:27.178Z,22.97
2018-01-27T04:07:27.349Z,22.99
2018-01-27T04:08:28.406Z,23.06
2018-01-27T04:09:27.355Z,23.06
2018-01-27T04:10:27.155Z,23.18
2018-01-27T04:11:27.121Z,23.12
2018-01-27T04:12:27.022Z,23.19
2018-01-27T04:13:26.964Z,23.15
2018-01-27T04:14:28.271Z,23.12
2018-01-27T04:15:27.946Z,23.09
2018-01-27T04:16:27.802Z,23.16
2018-01-27T04:17:27.053Z,23.09
2018-01-27T04:18:27.294Z,23.12
2018-01-27T04:19:26.756Z,23.10
2018-01-27T04:20:27.346Z,23.00
2018-01-27T04:21:27.546Z,23.04
2018-01-27T04:22:27.322Z,23.00
2018-01-27T04:23:27.155Z,22.97
2018-01-27T04:24:26.544Z,22.94
2018-01-27T04:25:27.244Z,22.92
2018-01-27T04:26:26.613Z,22.81
2018-01-27T04:27:26.496Z,22.85
2018-01-27T04:28:26.412Z,22.82
2018-01-27T04:29:26.424Z,22.86
2018-01-27T04:30:26.344Z,22.86
2018-01-27T04:31:26.370Z,22.85
2018-01-27T04:32:26.463Z,22.86
2018-01-27T04:33:26.295Z,22.97
2018-01-27T04:34:26.271Z,22.89
2018-01-27T04:35:26.234Z,23.00
2018-01-27T04:36:26.184Z,22.88
2018-01-27T04:37:26.279Z,22.97
2018-01-27T04:38:26.153Z,22.94
2018-01-27T04:39:26.094Z,22.99
2018-01-27T04:40:26.082Z,22.92
2018-01-27T04:41:26.061Z,22.92
2018-01-27T04:42:26.115Z,22.88
2018-01-27T04:43:26.116Z,22.88
2018-01-27T04:44:25.976Z,22.84
2018-01-27T04:45:25.937Z,22.86
2018-01-27T04:46:25.906Z,22.86
2018-01-27T04:47:26.179Z,22.81
2018-01-27T04:48:25.958Z,22.84
2018-01-27T04:49:25.819Z,22.88
2018-01-27T04:50:25.798Z,22.84
2018-01-27T04:51:25.799Z,22.86
2018-01-27T04:52:25.828Z,22.84
2018-01-27T04:53:25.770Z,22.82
2018-01-27T04:54:25.749Z,22.79
2018-01-27T04:55:25.657Z,22.84
2018-01-27T04:56:25.640Z,22.86
2018-01-27T04:57:25.648Z,22.86
2018-01-27T04:58:25.671Z,22.89
2018-01-27T04:59:25.530Z,22.85
2018-01-27T05:00:25.510Z,22.79
2018-01-27T05:01:25.483Z,22.75
2018-01-27T05:02:25.460Z,22.79
2018-01-27T05:03:25.421Z,22.79
2018-01-27T05:04:25.493Z,22.79
2018-01-27T05:05:25.367Z,22.79
2018-01-27T05:06:25.347Z,22.78
2018-01-27T05:07:25.319Z,22.86
2018-01-27T05:08:25.292Z,22.75
2018-01-27T05:09:25.455Z,22.75
2018-01-27T05:10:25.242Z,22.88
2018-01-27T05:11:25.210Z,22.82
2018-01-27T05:12:25.164Z,22.92
2018-01-27T05:13:25.141Z,22.99
2018-01-27T05:14:25.164Z,22.94
2018-01-27T05:15:25.094Z,22.84
2018-01-27T05:16:25.055Z,22.94
2018-01-27T05:17:25.024Z,22.92
2018-01-27T05:18:25.012Z,22.94
2018-01-27T05:19:25.087Z,23.03
2018-01-27T05:20:24.973Z,23.00
2018-01-27T05:21:24.991Z,23.04
2018-01-27T05:22:24.968Z,22.92
2018-01-27T05:23:24.871Z,22.96
2018-01-27T05:24:25.005Z,22.97
2018-01-27T05:25:24.812Z,22.94
2018-01-27T05:26:24.847Z,23.01
2018-01-27T05:27:24.747Z,22.91
2018-01-27T05:28:24.792Z,22.96
2018-01-27T05:29:24.736Z,22.94
2018-01-27T05:30:24.757Z,22.97
2018-01-27T05:31:24.657Z,22.82
2018-01-27T05:32:24.788Z,22.88
2018-01-27T05:33:24.578Z,22.96
2018-01-27T05:34:24.588Z,22.88
2018-01-27T05:35:24.518Z,22.91
2018-01-27T05:36:24.707Z,22.92
2018-01-27T05:37:24.458Z,22.85
2018-01-27T05:38:24.528Z,22.88
2018-01-27T05:39:24.415Z,22.89
2018-01-27T05:40:24.429Z,22.85
2018-01-27T05:41:24.376Z,22.84
2018-01-27T05:42:24.429Z,22.84
2018-01-27T05:43:24.301Z,22.84
2018-01-27T05:44:24.261Z,22.86
2018-01-27T05:45:24.237Z,22.84
2018-01-27T05:46:24.289Z,22.84
2018-01-27T05:47:24.297Z,22.85
2018-01-27T05:48:24.150Z,22.79
2018-01-27T05:49:24.121Z,22.89
2018-01-27T05:50:24.092Z,22.82
2018-01-27T05:51:24.070Z,22.85
2018-01-27T05:52:24.102Z,22.84
2018-01-27T05:53:24.012Z,22.79
2018-01-27T05:54:23.988Z,22.79
2018-01-27T05:55:23.971Z,22.76
2018-01-27T05:56:23.923Z,22.75
2018-01-27T05:57:24.003Z,22.85
2018-01-27T05:58:23.874Z,22.75
2018-01-27T05:59:23.851Z,22.78
2018-01-27T06:00:23.817Z,22.78
2018-01-27T06:01:23.794Z,22.69
2018-01-27T06:02:23.755Z,22.67
2018-01-27T06:03:23.844Z,22.66
2018-01-27T06:04:23.704Z,22.73
2018-01-27T06:05:23.674Z,22.70
2018-01-27T06:06:23.694Z,22.75
2018-01-27T06:07:23.656Z,22.73
2018-01-27T06:08:23.688Z,22.73
2018-01-27T06:09:23.642Z,22.71
2018-01-27T06:10:23.612Z,22.73
2018-01-27T06:11:23.515Z,22.67
2018-01-27T06:12:23.553Z,22.60
2018-01-27T06:13:23.454Z,22.71
2018-01-27T06:14:23.527Z,22.61
2018-01-27T06:15:23.447Z,22.67
2018-01-27T06:16:23.377Z,22.63
2018-01-27T06:17:23.337Z,22.59
2018-01-27T06:18:23.307Z,22.64
2018-01-27T06:19:23.277Z,22.61
2018-01-27T06:20:23.357Z,22.63
2018-01-27T06:21:23.237Z,22.70
2018-01-27T06:22:23.209Z,22.67
2018-01-27T06:23:23.170Z,22.79
2018-01-27T06:24:23.139Z,22.75
2018-01-27T06:25:23.216Z,22.76
2018-01-27T06:26:23.099Z,22.67
2018-01-27T06:27:23.207Z,22.64
2018-01-27T06:28:23.039Z,22.63
2018-01-27T06:29:23.009Z,22.63
2018-01-27T06:30:23.071Z,22.64
2018-01-27T06:31:22.940Z,22.57
2018-01-27T06:32:22.928Z,22.66
2018-01-27T06:33:22.899Z,22.63
2018-01-27T06:34:22.862Z,22.64
2018-01-27T06:35:22.832Z,22.60
2018-01-27T06:36:22.970Z,22.64
2018-01-27T06:37:22.771Z,22.64
2018-01-27T06:38:22.753Z,22.69
2018-01-27T06:39:22.833Z,22.61
2018-01-27T06:40:22.710Z,22.60
2018-01-27T06:41:22.662Z,22.57
2018-01-27T06:42:22.733Z,22.63
2018-01-27T06:43:22.614Z,22.51
2018-01-27T06:44:22.583Z,22.61
2018-01-27T06:45:22.564Z,22.59
2018-01-27T06:46:22.534Z,22.51
2018-01-27T06:47:22.603Z,22.54
2018-01-27T06:48:22.515Z,22.66
2018-01-27T06:49:22.436Z,22.69
2018-01-27T06:50:22.414Z,22.66
2018-01-27T06:51:22.395Z,22.63
2018-01-27T06:52:22.355Z,22.63
2018-01-27T06:53:22.425Z,22.63
2018-01-27T06:54:22.312Z,22.48
2018-01-27T06:55:22.277Z,22.49
2018-01-27T06:56:22.297Z,22.51
2018-01-27T06:57:22.227Z,22.57
2018-01-27T06:58:22.353Z,22.45
2018-01-27T06:59:22.156Z,22.55
2018-01-27T07:00:22.139Z,22.57
2018-01-27T07:01:22.108Z,22.59
2018-01-27T07:02:22.088Z,22.55
2018-01-27T07:03:22.159Z,22.45
2018-01-27T07:04:22.028Z,22.46
2018-01-27T07:05:21.989Z,22.42
2018-01-27T07:06:21.970Z,22.34
2018-01-27T07:07:21.939Z,22.45
2018-01-27T07:08:21.958Z,22.49
2018-01-27T07:09:22.018Z,22.46
2018-01-27T07:10:21.851Z,22.48
2018-01-27T07:11:21.829Z,22.46
2018-01-27T07:12:21.810Z,22.46
2018-01-27T07:13:21.771Z,22.44
2018-01-27T07:14:21.843Z,22.42
2018-01-27T07:15:21.714Z,22.49
2018-01-27T07:16:21.691Z,22.42
2018-01-27T07:17:21.663Z,22.45
2018-01-27T07:18:21.633Z,22.46
2018-01-27T07:19:21.711Z,22.44
2018-01-27T07:20:21.573Z,22.51
2018-01-27T07:21:21.542Z,22.41
2018-01-27T07:22:21.535Z,22.45
2018-01-27T07:23:21.511Z,22.34
2018-01-27T07:24:21.523Z,22.46
2018-01-27T07:25:21.434Z,22.46
2018-01-27T07:26:21.404Z,22.49
2018-01-27T07:27:21.382Z,22.48
2018-01-27T07:28:21.355Z,22.45
2018-01-27T07:29:21.412Z,22.44
2018-01-27T07:30:21.411Z,22.46
2018-01-27T07:31:21.282Z,22.41
2018-01-27T07:32:21.245Z,22.36
2018-01-27T07:33:21.222Z,22.38
2018-01-27T07:34:21.191Z,22.46
2018-01-27T07:35:21.382Z,22.38
2018-01-27T07:36:21.127Z,22.31
2018-01-27T07:37:21.108Z,22.29
2018-01-27T07:38:21.077Z,22.34
2018-01-27T07:39:21.047Z,22.24
2018-01-27T07:40:21.144Z,22.26
2018-01-27T07:41:21.089Z,22.30
2018-01-27T07:42:20.976Z,22.27
2018-01-27T07:43:20.939Z,22.27
2018-01-27T07:44:20.908Z,22.24
2018-01-27T07:45:20.878Z,22.33
2018-01-27T07:46:20.948Z,22.33
2018-01-27T07:47:20.842Z,22.30
2018-01-27T07:48:20.808Z,22.26
2018-01-27T07:49:20.768Z,22.22
2018-01-27T07:50:20.740Z,22.23
2018-01-27T07:51:20.827Z,22.14
2018-01-27T07:52:20.681Z,22.22
2018-01-27T07:53:20.661Z,22.31
2018-01-27T07:54:20.631Z,22.23
2018-01-27T07:55:20.621Z,22.22
2018-01-27T07:56:20.732Z,22.15
2018-01-27T07:57:20.540Z,22.26
2018-01-27T07:58:20.540Z,22.24
2018-01-27T07:59:20.491Z,22.22
2018-01-27T08:00:20.462Z,22.15
2018-01-27T08:01:20.434Z,22.15
2018-01-27T08:02:20.554Z,22.23
2018-01-27T08:03:20.383Z,22.04
2018-01-27T08:04:20.372Z,22.09
2018-01-27T08:05:20.332Z,22.16
2018-01-27T08:06:20.317Z,22.12
2018-01-27T08:07:20.264Z,22.07
2018-01-27T08:08:20.344Z,22.05
2018-01-27T08:09:20.214Z,22.07
2018-01-27T08:10:20.267Z,21.94
2018-01-27T08:11:20.161Z,21.90
2018-01-27T08:12:20.125Z,22.00
2018-01-27T08:13:20.103Z,21.97
2018-01-27T08:14:20.179Z,21.97
2018-01-27T08:15:20.120Z,21.93
2018-01-27T08:16:20.017Z,21.93
2018-01-27T08:17:19.997Z,21.90
2018-01-27T08:18:19.973Z,21.94
2018-01-27T08:19:20.027Z,21.83
2018-01-27T08:20:19.908Z,21.78
2018-01-27T08:21:19.878Z,21.74
2018-01-27T08:22:19.849Z,21.76
2018-01-27T08:23:19.820Z,21.74
2018-01-27T08:24:20.011Z,21.74
2018-01-27T08:25:19.776Z,21.78
2018-01-27T08:26:19.738Z,21.77
2018-01-27T08:27:19.731Z,21.82
2018-01-27T08:28:19.684Z,21.80
2018-01-27T08:29:19.748Z,21.70
2018-01-27T08:30:19.680Z,21.68
2018-01-27T08:31:19.610Z,21.68
2018-01-27T08:32:19.670Z,21.66
2018-01-27T08:33:19.542Z,21.70
2018-01-27T08:34:19.621Z,21.74
2018-01-27T08:35:19.498Z,21.67
2018-01-27T08:36:19.462Z,21.74
2018-01-27T08:37:19.429Z,21.73
2018-01-27T08:38:19.451Z,21.70
2018-01-27T08:39:19.378Z,21.71
2018-01-27T08:40:19.448Z,21.74
2018-01-27T08:41:19.337Z,21.74
2018-01-27T08:42:19.304Z,21.68
2018-01-27T08:43:19.262Z,21.74
2018-01-27T08:44:19.255Z,21.64
2018-01-27T08:45:19.305Z,21.71
2018-01-27T08:46:19.186Z,21.70
2018-01-27T08:47:19.143Z,21.59
2018-01-27T08:48:19.130Z,21.64
2018-01-27T08:49:19.097Z,21.64
2018-01-27T08:50:19.121Z,21.66
2018-01-27T08:51:19.143Z,21.74
2018-01-27T08:52:19.034Z,21.71
2018-01-27T08:53:18.990Z,21.73
2018-01-27T08:54:18.956Z,21.67
2018-01-27T08:55:18.933Z,21.67
2018-01-27T08:56:19.025Z,21.68
2018-01-27T08:57:18.875Z,21.53
2018-01-27T08:58:18.954Z,21.66
2018-01-27T08:59:18.821Z,21.66
2018-01-27T09:00:18.795Z,21.66
2018-01-27T09:01:18.872Z,21.66
2018-01-27T09:02:18.742Z,21.68
2018-01-27T09:03:18.708Z,21.61
2018-01-27T09:04:18.676Z,21.56
2018-01-27T09:05:18.651Z,21.67
2018-01-27T09:06:18.770Z,21.56
2018-01-27T09:07:18.616Z,21.71
2018-01-27T09:08:18.616Z,21.56
2018-01-27T09:09:18.556Z,21.68
2018-01-27T09:10:18.508Z,21.66
2018-01-27T09:11:18.504Z,21.55
2018-01-27T09:12:18.553Z,21.64
2018-01-27T09:13:18.453Z,21.62
2018-01-27T09:14:18.421Z,21.66
2018-01-27T09:15:18.385Z,21.70
2018-01-27T09:16:18.338Z,21.56
2018-01-27T09:17:18.319Z,21.67
2018-01-27T09:18:18.398Z,21.71
2018-01-27T09:19:18.252Z,21.66
2018-01-27T09:20:18.240Z,21.64
2018-01-27T09:21:18.218Z,21.59
2018-01-27T09:22:18.189Z,21.71
2018-01-27T09:23:18.134Z,21.66
2018-01-27T09:24:18.218Z,21.71
2018-01-27T09:25:18.122Z,21.61
2018-01-27T09:26:18.088Z,21.71
2018-01-27T09:27:18.048Z,21.74
2018-01-27T09:28:18.027Z,21.68
2018-01-27T09:29:18.051Z,21.74
2018-01-27T09:30:18.022Z,21.68
2018-01-27T09:31:17.928Z,21.66
2018-01-27T09:32:17.903Z,21.67
2018-01-27T09:33:17.869Z,21.76
2018-01-27T09:34:17.885Z,21.85
2018-01-27T09:35:17.811Z,21.92
2018-01-27T09:36:17.785Z,21.89
2018-01-27T09:37:17.797Z,21.85
2018-01-27T09:38:17.726Z,21.83
2018-01-27T09:39:17.831Z,21.93
2018-01-27T09:40:17.673Z,21.93
2018-01-27T09:41:17.657Z,21.89
2018-01-27T09:42:17.621Z,21.80
2018-01-27T09:43:17.599Z,21.77
2018-01-27T09:44:17.666Z,21.82
2018-01-27T09:45:17.534Z,21.73
2018-01-27T09:46:17.554Z,21.76
2018-01-27T09:47:17.488Z,21.74
2018-01-27T09:48:17.443Z,21.76
2018-01-27T09:49:17.461Z,21.70
2018-01-27T09:50:17.504Z,21.76
2018-01-27T09:51:17.381Z,21.70
2018-01-27T09:52:17.341Z,21.85
2018-01-27T09:53:17.318Z,21.86
2018-01-27T09:54:17.276Z,21.86
2018-01-27T09:55:17.294Z,21.96
2018-01-27T09:56:17.289Z,21.96
2018-01-27T09:57:17.193Z,21.97
2018-01-27T09:58:17.178Z,21.86
2018-01-27T09:59:17.150Z,21.89
2018-01-27T10:00:17.111Z,21.85
2018-01-27T10:01:17.178Z,21.89
2018-01-27T10:02:17.075Z,21.93
2018-01-27T10:03:17.043Z,21.86
2018-01-27T10:04:17.029Z,21.86
2018-01-27T10:05:16.986Z,21.73
2018-01-27T10:06:17.061Z,21.73
2018-01-27T10:07:16.912Z,21.70
2018-01-27T10:08:16.925Z,21.71
2018-01-27T10:09:16.854Z,21.74
2018-01-27T10:10:16.869Z,21.73
2018-01-27T10:11:16.909Z,21.77
2018-01-27T10:12:16.782Z,21.85
2018-01-27T10:13:16.765Z,21.82
2018-01-27T10:14:16.737Z,21.82
2018-01-27T10:15:16.710Z,21.77
2018-01-27T10:16:16.775Z,21.86
2018-01-27T10:17:16.675Z,21.89
2018-01-27T10:18:16.603Z,21.78
2018-01-27T10:19:16.595Z,21.82
2018-01-27T10:20:16.596Z,21.85
2018-01-27T10:21:16.638Z,21.85
2018-01-27T10:22:16.533Z,21.89
2018-01-27T10:23:16.482Z,21.89
2018-01-27T10:24:16.477Z,21.83
2018-01-27T10:25:16.419Z,21.85
2018-01-27T10:26:16.401Z,21.76
2018-01-27T10:27:16.529Z,21.82
2018-01-27T10:28:16.352Z,21.77
2018-01-27T10:29:16.355Z,21.82
2018-01-27T10:30:16.285Z,21.83
2018-01-27T10:31:16.247Z,21.80
2018-01-27T10:32:16.324Z,21.80
2018-01-27T10:33:16.190Z,21.80
2018-01-27T10:34:16.160Z,21.77
2018-01-27T10:35:16.147Z,21.77
2018-01-27T10:36:16.104Z,21.77
2018-01-27T10:37:16.178Z,21.73
2018-01-27T10:38:16.039Z,21.76
2018-01-27T10:39:16.029Z,21.73
2018-01-27T10:40:15.973Z,21.68
2018-01-27T10:41:15.981Z,21.70
2018-01-27T10:42:16.248Z,21.77
2018-01-27T10:43:15.921Z,21.77
2018-01-27T10:44:15.861Z,21.82
2018-01-27T10:45:16.380Z,21.82
2018-01-27T10:46:15.833Z,21.99
2018-01-27T10:47:15.925Z,21.99
2018-01-27T10:48:15.766Z,21.97
2018-01-27T10:49:15.740Z,21.82
2018-01-27T10:50:15.931Z,21.90
2018-01-27T10:51:15.696Z,21.92
2018-01-27T10:52:15.748Z,21.90
2018-01-27T10:53:16.180Z,21.89
2018-01-27T10:54:15.637Z,21.90
2018-01-27T10:55:15.575Z,21.77
2018-01-27T10:56:15.549Z,21.78
2018-01-27T10:57:15.543Z,21.82
2018-01-27T10:58:17.018Z,21.74
2018-01-27T10:59:15.465Z,21.70
2018-01-27T11:00:15.442Z,21.68
2018-01-27T11:01:15.415Z,21.67
2018-01-27T11:02:15.382Z,21.66
2018-01-27T11:03:15.377Z,21.67
2018-01-27T11:04:15.412Z,21.53
2018-01-27T11:05:15.310Z,21.70
2018-01-27T11:06:15.286Z,21.59
2018-01-27T11:07:15.249Z,21.67
2018-01-27T11:08:15.202Z,21.68
2018-01-27T11:09:15.281Z,21.66
2018-01-27T11:10:15.150Z,21.67
2018-01-27T11:11:15.129Z,21.76
2018-01-27T11:12:15.086Z,21.67
2018-01-27T11:13:15.074Z,21.66
2018-01-27T11:14:15.141Z,21.70
2018-01-27T11:15:15.015Z,21.67
2018-01-27T11:16:14.973Z,21.61
2018-01-27T11:17:15.003Z,21.53
2018-01-27T11:18:14.931Z,21.71
2018-01-27T11:19:15.001Z,21.66
2018-01-27T11:20:14.892Z,21.64
2018-01-27T11:21:14.866Z,21.66
2018-01-27T11:22:14.806Z,21.55
2018-01-27T11:23:14.817Z,21.67
2018-01-27T11:24:15.442Z,21.58
2018-01-27T11:25:14.750Z,21.55
2018-01-27T11:26:14.720Z,21.58
2018-01-27T11:27:14.661Z,21.55
2018-01-27T11:28:14.714Z,21.55
2018-01-27T11:29:14.616Z,21.45
2018-01-27T11:30:15.228Z,21.51
2018-01-27T11:31:14.563Z,21.48
2018-01-27T11:32:14.540Z,21.52
2018-01-27T11:33:14.485Z,21.52
2018-01-27T11:34:14.477Z,21.58
2018-01-27T11:35:14.453Z,21.55
2018-01-27T11:36:14.622Z,21.41
2018-01-27T11:37:14.382Z,21.52
2018-01-27T11:38:14.362Z,21.55
2018-01-27T11:39:14.324Z,21.55
2018-01-27T11:40:14.307Z,21.61
2018-01-27T11:41:14.283Z,21.51
2018-01-27T11:42:14.311Z,21.48
2018-01-27T11:43:14.806Z,21.52
2018-01-27T11:44:14.210Z,21.49
2018-01-27T11:45:14.204Z,21.49
2018-01-27T11:46:14.152Z,21.53
2018-01-27T11:47:14.159Z,21.68
2018-01-27T11:48:14.090Z,21.56
2018-01-27T11:49:14.053Z,21.67
2018-01-27T11:50:14.411Z,21.67
2018-01-27T11:51:13.989Z,21.62
2018-01-27T11:52:14.058Z,21.66
2018-01-27T11:53:13.986Z,21.52
2018-01-27T11:54:14.479Z,21.66
2018-01-27T11:55:13.933Z,21.62
2018-01-27T11:56:13.925Z,21.74
2018-01-27T11:57:13.865Z,21.71
2018-01-27T11:58:14.323Z,21.70
2018-01-27T11:59:13.855Z,21.58
2018-01-27T12:00:13.754Z,21.66
2018-01-27T12:01:14.006Z,21.59
2018-01-27T12:02:13.857Z,21.70
2018-01-27T12:03:13.653Z,21.68
2018-01-27T12:04:13.641Z,21.67
2018-01-27T12:05:13.613Z,21.53
2018-01-27T12:06:13.568Z,21.70
2018-01-27T12:07:13.625Z,21.56
2018-01-27T12:08:14.114Z,21.58
2018-01-27T12:09:13.495Z,21.58
2018-01-27T12:10:13.517Z,21.56
2018-01-27T12:11:13.437Z,21.56
2018-01-27T12:12:13.419Z,21.64
2018-01-27T12:13:13.414Z,21.59
2018-01-27T12:14:13.973Z,21.59
2018-01-27T12:15:13.316Z,21.64
2018-01-27T12:16:13.313Z,21.62
2018-01-27T12:17:13.262Z,21.52
2018-01-27T12:18:13.587Z,21.66
2018-01-27T12:19:14.288Z,21.66
2018-01-27T12:20:13.329Z,21.68
2018-01-27T12:21:13.181Z,21.58
2018-01-27T12:22:13.116Z,21.64
2018-01-27T12:23:13.299Z,21.67
2018-01-27T12:24:13.628Z,21.70
2018-01-27T12:25:13.175Z,21.76
2018-01-27T12:26:13.018Z,21.73
2018-01-27T12:27:12.992Z,21.76
2018-01-27T12:28:13.043Z,21.80
2018-01-27T12:29:13.027Z,21.85
2018-01-27T12:30:12.981Z,21.89
2018-01-27T12:31:12.873Z,22.00
2018-01-27T12:32:12.828Z,21.99
2018-01-27T12:33:12.820Z,22.00
2018-01-27T12:34:12.790Z,22.14
2018-01-27T12:35:12.768Z,22.02
2018-01-27T12:36:13.380Z,22.08
2018-01-27T12:37:12.722Z,22.08
2018-01-27T12:38:12.691Z,22.20
2018-01-27T12:39:12.650Z,22.20
2018-01-27T12:40:12.631Z,22.30
2018-01-27T12:41:12.654Z,22.30
2018-01-27T12:42:12.705Z,22.27
2018-01-27T12:43:12.535Z,22.39
2018-01-27T12:44:12.515Z,22.34
2018-01-27T12:45:12.459Z,22.42
2018-01-27T12:46:12.473Z,22.51
2018-01-27T12:47:12.471Z,22.55
2018-01-27T12:48:12.505Z,22.55
2018-01-27T12:49:12.926Z,22.63
2018-01-27T12:50:12.351Z,22.64
2018-01-27T12:51:12.894Z,22.73
2018-01-27T12:52:12.832Z,22.75